sensor_id;sensor_type;location;lat;lon;timestamp;temperature;humidity
15815;DHT22;8008;50.024;8.172;2022-12-18T04:02:25;-4.70;99.90
15815;DHT22;8008;50.024;8.172;2022-12-18T04:05:01;-4.70;99.90
15815;DHT22;8008;50.024;8.172;2022-12-18T04:07:32;-4.60;99.90
15815;DHT22;8008;50.024;8.172;2022-12-18T04:10:02;-4.50;99.90
15815;DHT22;8008;50.024;8.172;2022-12-18T04:12:31;-4.40;99.90
15815;DHT22;8008;50.024;8.172;2022-12-18T04:14:59;-4.40;99.90
15815;DHT22;8008;50.024;8.172;2022-12-18T04:17:29;-4.50;99.90
15815;DHT22;8008;50.024;8.172;2022-12-18T04:19:57;-4.50;99.90
15815;DHT22;8008;50.024;8.172;2022-12-18T04:22:25;-4.60;99.90
15815;DHT22;8008;50.024;8.172;2022-12-18T04:24:58;-4.80;99.90
15815;DHT22;8008;50.024;8.172;2022-12-18T04:27:34;-4.80;99.90
15815;DHT22;8008;50.024;8.172;2022-12-18T04:30:05;-4.80;99.90
15815;DHT22;8008;50.024;8.172;2022-12-18T04:32:34;-4.90;99.90
15815;DHT22;8008;50.024;8.172;2022-12-18T04:35:03;-5.10;99.90
15815;DHT22;8008;50.024;8.172;2022-12-18T04:37:34;-5.30;99.90
15815;DHT22;8008;50.024;8.172;2022-12-18T04:40:02;-5.50;99.90
15815;DHT22;8008;50.024;8.172;2022-12-18T04:42:39;-5.60;99.90
15815;DHT22;8008;50.024;8.172;2022-12-18T04:45:08;-5.80;99.90
15815;DHT22;8008;50.024;8.172;2022-12-18T04:47:37;-5.90;99.90
15815;DHT22;8008;50.024;8.172;2022-12-18T04:50:06;-5.80;99.90
15815;DHT22;8008;50.024;8.172;2022-12-18T04:52:34;-5.80;99.90
15815;DHT22;8008;50.024;8.172;2022-12-18T04:55:03;-5.80;99.90
15815;DHT22;8008;50.024;8.172;2022-12-18T04:57:31;-5.80;99.90
15815;DHT22;8008;50.024;8.172;2022-12-18T04:59:58;-5.60;99.90
15815;DHT22;8008;50.024;8.172;2022-12-18T05:02:27;-5.60;99.90
15815;DHT22;8008;50.024;8.172;2022-12-18T05:04:56;-5.60;99.90
15815;DHT22;8008;50.024;8.172;2022-12-18T05:07:24;-5.70;99.90
15815;DHT22;8008;50.024;8.172;2022-12-18T05:09:52;-6.00;99.90
15815;DHT22;8008;50.024;8.172;2022-12-18T05:12:20;-6.20;99.90
15815;DHT22;8008;50.024;8.172;2022-12-18T05:14:48;-6.30;99.90
15815;DHT22;8008;50.024;8.172;2022-12-18T05:17:16;-6.30;99.90
15815;DHT22;8008;50.024;8.172;2022-12-18T05:19:44;-6.40;99.90
15815;DHT22;8008;50.024;8.172;2022-12-18T05:22:13;-6.20;99.90
15815;DHT22;8008;50.024;8.172;2022-12-18T05:24:41;-6.20;99.90
15815;DHT22;8008;50.024;8.172;2022-12-18T05:27:08;-6.10;99.90
15815;DHT22;8008;50.024;8.172;2022-12-18T05:29:36;-6.20;99.90
15815;DHT22;8008;50.024;8.172;2022-12-18T05:32:04;-6.20;99.90
15815;DHT22;8008;50.024;8.172;2022-12-18T05:34:32;-6.00;99.90
15815;DHT22;8008;50.024;8.172;2022-12-18T05:37:00;-6.10;99.90
15815;DHT22;8008;50.024;8.172;2022-12-18T05:39:29;-6.20;99.90
15815;DHT22;8008;50.024;8.172;2022-12-18T05:41:57;-6.30;99.90
15815;DHT22;8008;50.024;8.172;2022-12-18T05:44:25;-6.10;99.90
15815;DHT22;8008;50.024;8.172;2022-12-18T05:46:53;-6.20;99.90
15815;DHT22;8008;50.024;8.172;2022-12-18T05:49:21;-6.30;99.90
15815;DHT22;8008;50.024;8.172;2022-12-18T05:51:49;-6.10;99.90
15815;DHT22;8008;50.024;8.172;2022-12-18T05:54:17;-5.90;99.90
15815;DHT22;8008;50.024;8.172;2022-12-18T05:56:46;-5.90;99.90
15815;DHT22;8008;50.024;8.172;2022-12-18T05:59:14;-5.90;99.90
15815;DHT22;8008;50.024;8.172;2022-12-18T06:01:42;-5.90;99.90
15815;DHT22;8008;50.024;8.172;2022-12-18T06:04:10;-6.00;99.90
15815;DHT22;8008;50.024;8.172;2022-12-18T06:06:38;-6.10;99.90
15815;DHT22;8008;50.024;8.172;2022-12-18T06:09:06;-6.10;99.90
15815;DHT22;8008;50.024;8.172;2022-12-18T06:11:37;-6.10;99.90
15815;DHT22;8008;50.024;8.172;2022-12-18T06:14:06;-6.20;99.90
15815;DHT22;8008;50.024;8.172;2022-12-18T06:16:34;-6.30;99.90
15815;DHT22;8008;50.024;8.172;2022-12-18T06:19:04;-6.10;99.90
15815;DHT22;8008;50.024;8.172;2022-12-18T06:21:32;-6.00;99.90
15815;DHT22;8008;50.024;8.172;2022-12-18T06:24:02;-6.00;99.90
15815;DHT22;8008;50.024;8.172;2022-12-18T06:26:29;-6.30;99.90
15815;DHT22;8008;50.024;8.172;2022-12-18T06:28:57;-6.50;99.90
15815;DHT22;8008;50.024;8.172;2022-12-18T06:31:26;-6.30;99.90
15815;DHT22;8008;50.024;8.172;2022-12-18T06:33:55;-6.40;99.90
15815;DHT22;8008;50.024;8.172;2022-12-18T06:36:23;-6.30;99.90
15815;DHT22;8008;50.024;8.172;2022-12-18T06:38:51;-6.20;99.90
15815;DHT22;8008;50.024;8.172;2022-12-18T06:41:20;-6.50;99.90
15815;DHT22;8008;50.024;8.172;2022-12-18T06:43:48;-6.70;99.90
15815;DHT22;8008;50.024;8.172;2022-12-18T06:46:16;-6.90;99.90
15815;DHT22;8008;50.024;8.172;2022-12-18T06:48:48;-7.00;99.90
15815;DHT22;8008;50.024;8.172;2022-12-18T06:51:20;-7.00;99.90
15815;DHT22;8008;50.024;8.172;2022-12-18T06:53:48;-7.10;99.90
15815;DHT22;8008;50.024;8.172;2022-12-18T06:56:16;-7.10;99.90
15815;DHT22;8008;50.024;8.172;2022-12-18T06:58:44;-7.10;99.90
15815;DHT22;8008;50.024;8.172;2022-12-18T07:01:13;-7.10;99.90
15815;DHT22;8008;50.024;8.172;2022-12-18T07:03:41;-7.20;99.90
15815;DHT22;8008;50.024;8.172;2022-12-18T07:06:16;-7.30;99.90
15815;DHT22;8008;50.024;8.172;2022-12-18T07:08:45;-7.40;99.90
15815;DHT22;8008;50.024;8.172;2022-12-18T07:11:13;-7.40;99.90
15815;DHT22;8008;50.024;8.172;2022-12-18T07:13:41;-7.50;99.90
15815;DHT22;8008;50.024;8.172;2022-12-18T07:16:11;-7.50;99.90
15815;DHT22;8008;50.024;8.172;2022-12-18T07:18:48;-7.50;99.90
15815;DHT22;8008;50.024;8.172;2022-12-18T07:21:19;-7.50;99.90
15815;DHT22;8008;50.024;8.172;2022-12-18T07:23:47;-7.50;99.90
15815;DHT22;8008;50.024;8.172;2022-12-18T07:26:17;-7.40;99.90
15815;DHT22;8008;50.024;8.172;2022-12-18T07:28:45;-7.40;99.90
15815;DHT22;8008;50.024;8.172;2022-12-18T07:31:15;-7.30;99.90
15815;DHT22;8008;50.024;8.172;2022-12-18T07:33:45;-7.20;99.90
15815;DHT22;8008;50.024;8.172;2022-12-18T07:36:13;-7.10;99.90
15815;DHT22;8008;50.024;8.172;2022-12-18T07:38:46;-7.00;99.90
15815;DHT22;8008;50.024;8.172;2022-12-18T07:41:14;-6.90;99.90
15815;DHT22;8008;50.024;8.172;2022-12-18T07:43:41;-6.80;99.90
15815;DHT22;8008;50.024;8.172;2022-12-18T07:46:11;-6.70;99.90
15815;DHT22;8008;50.024;8.172;2022-12-18T07:48:40;-6.70;99.90
15815;DHT22;8008;50.024;8.172;2022-12-18T07:51:09;-6.80;99.90
15815;DHT22;8008;50.024;8.172;2022-12-18T07:53:37;-7.00;99.90
15815;DHT22;8008;50.024;8.172;2022-12-18T07:56:09;-7.10;99.90
15815;DHT22;8008;50.024;8.172;2022-12-18T07:58:56;-7.20;99.90
15815;DHT22;8008;50.024;8.172;2022-12-18T08:01:24;-7.20;99.90
15815;DHT22;8008;50.024;8.172;2022-12-18T08:03:52;-7.30;99.90
15815;DHT22;8008;50.024;8.172;2022-12-18T08:06:20;-7.20;99.90
15815;DHT22;8008;50.024;8.172;2022-12-18T08:08:51;-7.10;99.90
15815;DHT22;8008;50.024;8.172;2022-12-18T08:11:21;-7.10;99.90
15815;DHT22;8008;50.024;8.172;2022-12-18T08:13:49;-7.00;99.90
15815;DHT22;8008;50.024;8.172;2022-12-18T08:16:17;-6.90;99.90
15815;DHT22;8008;50.024;8.172;2022-12-18T08:18:46;-7.00;99.90
15815;DHT22;8008;50.024;8.172;2022-12-18T08:21:17;-7.10;99.90
15815;DHT22;8008;50.024;8.172;2022-12-18T08:23:47;-7.00;99.90
15815;DHT22;8008;50.024;8.172;2022-12-18T08:26:17;-7.10;99.90
15815;DHT22;8008;50.024;8.172;2022-12-18T08:28:48;-7.20;99.90
15815;DHT22;8008;50.024;8.172;2022-12-18T08:31:16;-7.10;99.90
15815;DHT22;8008;50.024;8.172;2022-12-18T08:33:45;-7.00;99.90
15815;DHT22;8008;50.024;8.172;2022-12-18T08:36:13;-6.70;99.90
15815;DHT22;8008;50.024;8.172;2022-12-18T08:38:41;-6.60;99.90
15815;DHT22;8008;50.024;8.172;2022-12-18T08:41:13;-6.50;99.90
15815;DHT22;8008;50.024;8.172;2022-12-18T08:43:41;-6.60;99.90
15815;DHT22;8008;50.024;8.172;2022-12-18T08:46:33;-6.40;99.90
15815;DHT22;8008;50.024;8.172;2022-12-18T08:49:02;-6.40;99.90
15815;DHT22;8008;50.024;8.172;2022-12-18T08:51:30;-6.60;99.90
15815;DHT22;8008;50.024;8.172;2022-12-18T08:53:58;-6.60;99.90
15815;DHT22;8008;50.024;8.172;2022-12-18T08:56:26;-6.40;99.90
15815;DHT22;8008;50.024;8.172;2022-12-18T08:58:54;-6.20;99.90
15815;DHT22;8008;50.024;8.172;2022-12-18T09:01:22;-6.10;99.90
15815;DHT22;8008;50.024;8.172;2022-12-18T09:03:52;-5.80;99.90
15815;DHT22;8008;50.024;8.172;2022-12-18T09:06:21;-5.70;99.90
15815;DHT22;8008;50.024;8.172;2022-12-18T09:08:49;-5.70;99.90
15815;DHT22;8008;50.024;8.172;2022-12-18T09:11:20;-5.60;99.90
15815;DHT22;8008;50.024;8.172;2022-12-18T09:13:49;-5.70;99.90
15815;DHT22;8008;50.024;8.172;2022-12-18T09:16:18;-5.80;99.90
15815;DHT22;8008;50.024;8.172;2022-12-18T09:18:46;-5.80;99.90
15815;DHT22;8008;50.024;8.172;2022-12-18T09:21:18;-5.80;99.90
15815;DHT22;8008;50.024;8.172;2022-12-18T09:23:49;-5.80;99.90
15815;DHT22;8008;50.024;8.172;2022-12-18T09:26:18;-5.60;99.90
15815;DHT22;8008;50.024;8.172;2022-12-18T09:28:46;-5.40;99.90
15815;DHT22;8008;50.024;8.172;2022-12-18T09:31:13;-5.20;99.90
15815;DHT22;8008;50.024;8.172;2022-12-18T09:33:41;-4.90;99.90
15815;DHT22;8008;50.024;8.172;2022-12-18T09:36:11;-4.90;99.90
15815;DHT22;8008;50.024;8.172;2022-12-18T09:38:41;-4.70;99.90
15815;DHT22;8008;50.024;8.172;2022-12-18T09:41:19;-4.60;99.90
15815;DHT22;8008;50.024;8.172;2022-12-18T09:43:53;-4.90;99.90
15815;DHT22;8008;50.024;8.172;2022-12-18T09:46:26;-4.80;99.90
15815;DHT22;8008;50.024;8.172;2022-12-18T09:48:59;-4.50;99.90
15815;DHT22;8008;50.024;8.172;2022-12-18T09:51:32;-4.20;99.90
15815;DHT22;8008;50.024;8.172;2022-12-18T09:54:05;-4.00;99.90
15815;DHT22;8008;50.024;8.172;2022-12-18T09:56:36;-3.80;99.90
15815;DHT22;8008;50.024;8.172;2022-12-18T09:59:05;-3.60;99.90
15815;DHT22;8008;50.024;8.172;2022-12-18T10:01:33;-3.50;99.90
15815;DHT22;8008;50.024;8.172;2022-12-18T10:04:09;-3.40;99.90
15815;DHT22;8008;50.024;8.172;2022-12-18T10:06:42;-3.20;99.90
15815;DHT22;8008;50.024;8.172;2022-12-18T10:09:16;-3.20;99.90
15815;DHT22;8008;50.024;8.172;2022-12-18T10:11:51;-3.10;99.90
15815;DHT22;8008;50.024;8.172;2022-12-18T10:14:29;-2.90;99.90
15815;DHT22;8008;50.024;8.172;2022-12-18T10:17:05;-2.90;99.90
15815;DHT22;8008;50.024;8.172;2022-12-18T10:19:39;-2.90;99.90
15815;DHT22;8008;50.024;8.172;2022-12-18T10:22:23;-2.80;99.90
15815;DHT22;8008;50.024;8.172;2022-12-18T10:25:01;-2.60;99.90
15815;DHT22;8008;50.024;8.172;2022-12-18T10:27:31;-2.50;99.90
15815;DHT22;8008;50.024;8.172;2022-12-18T10:29:59;-2.60;99.90
15815;DHT22;8008;50.024;8.172;2022-12-18T10:32:30;-2.50;99.90
15815;DHT22;8008;50.024;8.172;2022-12-18T10:34:58;-2.30;99.90
15815;DHT22;8008;50.024;8.172;2022-12-18T10:37:29;-2.30;99.90
15815;DHT22;8008;50.024;8.172;2022-12-18T10:40:09;-2.30;99.90
15815;DHT22;8008;50.024;8.172;2022-12-18T10:42:44;-2.30;99.90
15815;DHT22;8008;50.024;8.172;2022-12-18T10:45:15;-2.20;99.90
15815;DHT22;8008;50.024;8.172;2022-12-18T10:47:45;-2.10;99.90
15815;DHT22;8008;50.024;8.172;2022-12-18T10:50:19;-2.10;99.90
15815;DHT22;8008;50.024;8.172;2022-12-18T10:52:59;-2.00;99.90
15815;DHT22;8008;50.024;8.172;2022-12-18T10:55:32;-2.00;99.90
15815;DHT22;8008;50.024;8.172;2022-12-18T10:58:21;-2.10;99.90
15815;DHT22;8008;50.024;8.172;2022-12-18T11:01:07;-2.10;99.90
15815;DHT22;8008;50.024;8.172;2022-12-18T11:03:37;-2.00;99.90
15815;DHT22;8008;50.024;8.172;2022-12-18T11:06:08;-2.00;99.90
15815;DHT22;8008;50.024;8.172;2022-12-18T11:08:37;-2.00;99.90
15815;DHT22;8008;50.024;8.172;2022-12-18T11:11:24;-2.00;99.90
15815;DHT22;8008;50.024;8.172;2022-12-18T11:13:59;-2.00;99.90
15815;DHT22;8008;50.024;8.172;2022-12-18T11:16:30;-1.90;99.90
15815;DHT22;8008;50.024;8.172;2022-12-18T11:19:20;-1.90;99.90
15815;DHT22;8008;50.024;8.172;2022-12-18T11:21:51;-1.80;99.90
15815;DHT22;8008;50.024;8.172;2022-12-18T11:24:24;-1.80;99.90
15815;DHT22;8008;50.024;8.172;2022-12-18T11:26:57;-1.70;99.90
15815;DHT22;8008;50.024;8.172;2022-12-18T11:29:32;-1.70;99.90
15815;DHT22;8008;50.024;8.172;2022-12-18T11:32:26;-1.60;99.90
15815;DHT22;8008;50.024;8.172;2022-12-18T11:35:01;-1.60;99.90
15815;DHT22;8008;50.024;8.172;2022-12-18T11:37:32;-1.60;99.90
15815;DHT22;8008;50.024;8.172;2022-12-18T11:40:06;-1.50;99.90
15815;DHT22;8008;50.024;8.172;2022-12-18T11:42:43;-1.40;99.90
15815;DHT22;8008;50.024;8.172;2022-12-18T11:45:24;-1.30;99.90
15815;DHT22;8008;50.024;8.172;2022-12-18T11:47:57;-1.10;99.90
15815;DHT22;8008;50.024;8.172;2022-12-18T11:50:30;-1.30;99.90
15815;DHT22;8008;50.024;8.172;2022-12-18T11:53:00;-1.20;99.90
15815;DHT22;8008;50.024;8.172;2022-12-18T11:55:39;-1.20;99.90
15815;DHT22;8008;50.024;8.172;2022-12-18T11:58:19;-1.20;99.90
15815;DHT22;8008;50.024;8.172;2022-12-18T12:01:03;-1.20;99.90
15815;DHT22;8008;50.024;8.172;2022-12-18T12:03:52;-1.20;99.90
15815;DHT22;8008;50.024;8.172;2022-12-18T12:06:26;-1.10;99.90
15815;DHT22;8008;50.024;8.172;2022-12-18T12:09:07;-1.00;99.90
15815;DHT22;8008;50.024;8.172;2022-12-18T12:11:43;-0.90;99.90
15815;DHT22;8008;50.024;8.172;2022-12-18T12:14:29;-0.90;99.90
15815;DHT22;8008;50.024;8.172;2022-12-18T12:17:07;-0.80;99.90
15815;DHT22;8008;50.024;8.172;2022-12-18T12:19:46;-0.70;99.90
15815;DHT22;8008;50.024;8.172;2022-12-18T12:22:23;-0.70;99.90
15815;DHT22;8008;50.024;8.172;2022-12-18T12:25:01;-0.60;99.90
15815;DHT22;8008;50.024;8.172;2022-12-18T12:27:39;-0.50;99.90
15815;DHT22;8008;50.024;8.172;2022-12-18T12:30:19;-0.50;99.90
15815;DHT22;8008;50.024;8.172;2022-12-18T12:33:01;-0.50;99.90
15815;DHT22;8008;50.024;8.172;2022-12-18T12:35:42;-0.60;99.90
15815;DHT22;8008;50.024;8.172;2022-12-18T12:38:14;-0.60;99.90
15815;DHT22;8008;50.024;8.172;2022-12-18T12:40:48;-0.80;99.90
15815;DHT22;8008;50.024;8.172;2022-12-18T12:43:33;-1.00;99.90
15815;DHT22;8008;50.024;8.172;2022-12-18T12:46:05;-1.10;99.90
15815;DHT22;8008;50.024;8.172;2022-12-18T12:48:38;-1.10;99.90
15815;DHT22;8008;50.024;8.172;2022-12-18T12:51:13;-1.00;99.90
15815;DHT22;8008;50.024;8.172;2022-12-18T12:53:43;-1.00;99.90
15815;DHT22;8008;50.024;8.172;2022-12-18T12:56:15;-0.80;99.90
15815;DHT22;8008;50.024;8.172;2022-12-18T12:58:55;-0.70;99.90
15815;DHT22;8008;50.024;8.172;2022-12-18T13:01:35;-0.60;99.90
15815;DHT22;8008;50.024;8.172;2022-12-18T13:04:14;-0.70;99.90
15815;DHT22;8008;50.024;8.172;2022-12-18T13:06:48;-0.60;99.90
15815;DHT22;8008;50.024;8.172;2022-12-18T13:09:17;-0.70;99.90
15815;DHT22;8008;50.024;8.172;2022-12-18T13:11:48;-0.80;99.90
15815;DHT22;8008;50.024;8.172;2022-12-18T13:14:36;-0.90;99.90
15815;DHT22;8008;50.024;8.172;2022-12-18T13:17:31;-0.90;99.90
15815;DHT22;8008;50.024;8.172;2022-12-18T13:20:09;-0.90;99.90
15815;DHT22;8008;50.024;8.172;2022-12-18T13:22:42;-0.90;99.90
15815;DHT22;8008;50.024;8.172;2022-12-18T13:25:31;-0.90;99.90
15815;DHT22;8008;50.024;8.172;2022-12-18T13:28:03;-0.90;99.90
15815;DHT22;8008;50.024;8.172;2022-12-18T13:30:52;-0.80;99.90
15815;DHT22;8008;50.024;8.172;2022-12-18T13:33:51;-0.90;99.90
15815;DHT22;8008;50.024;8.172;2022-12-18T13:36:54;-1.00;99.90
15815;DHT22;8008;50.024;8.172;2022-12-18T13:39:31;-1.00;99.90
15815;DHT22;8008;50.024;8.172;2022-12-18T13:42:37;-1.00;99.90
15815;DHT22;8008;50.024;8.172;2022-12-18T13:45:44;-0.90;99.90
15815;DHT22;8008;50.024;8.172;2022-12-18T13:48:24;-1.00;99.90
15815;DHT22;8008;50.024;8.172;2022-12-18T13:50:57;-0.90;99.90
15815;DHT22;8008;50.024;8.172;2022-12-18T13:53:29;-1.00;99.90
15815;DHT22;8008;50.024;8.172;2022-12-18T13:55:58;-1.00;99.90
15815;DHT22;8008;50.024;8.172;2022-12-18T13:58:26;-1.00;99.90
15815;DHT22;8008;50.024;8.172;2022-12-18T14:00:54;-1.10;99.90
15815;DHT22;8008;50.024;8.172;2022-12-18T14:03:25;-1.10;99.90
15815;DHT22;8008;50.024;8.172;2022-12-18T14:05:59;-1.00;99.90
15815;DHT22;8008;50.024;8.172;2022-12-18T14:08:32;-1.00;99.90
15815;DHT22;8008;50.024;8.172;2022-12-18T14:11:05;-1.00;99.90
15815;DHT22;8008;50.024;8.172;2022-12-18T14:13:40;-1.00;99.90
15815;DHT22;8008;50.024;8.172;2022-12-18T14:16:14;-1.00;99.90
15815;DHT22;8008;50.024;8.172;2022-12-18T14:18:45;-1.00;99.90
15815;DHT22;8008;50.024;8.172;2022-12-18T14:21:21;-1.00;99.90
15815;DHT22;8008;50.024;8.172;2022-12-18T14:24:03;-1.00;99.90
15815;DHT22;8008;50.024;8.172;2022-12-18T14:26:31;-0.90;99.90
15815;DHT22;8008;50.024;8.172;2022-12-18T14:29:01;-0.90;99.90
15815;DHT22;8008;50.024;8.172;2022-12-18T14:31:42;-0.90;99.90
15815;DHT22;8008;50.024;8.172;2022-12-18T14:34:15;-1.00;99.90
15815;DHT22;8008;50.024;8.172;2022-12-18T14:36:53;-1.00;99.90
15815;DHT22;8008;50.024;8.172;2022-12-18T14:39:22;-1.00;99.90
15815;DHT22;8008;50.024;8.172;2022-12-18T14:41:53;-1.00;99.90
15815;DHT22;8008;50.024;8.172;2022-12-18T14:44:21;-1.10;99.90
15815;DHT22;8008;50.024;8.172;2022-12-18T14:46:50;-1.20;99.90
15815;DHT22;8008;50.024;8.172;2022-12-18T14:49:23;-1.20;99.90
15815;DHT22;8008;50.024;8.172;2022-12-18T14:51:54;-1.20;99.90
15815;DHT22;8008;50.024;8.172;2022-12-18T14:54:24;-1.20;99.90
15815;DHT22;8008;50.024;8.172;2022-12-18T14:56:59;-1.20;99.90
15815;DHT22;8008;50.024;8.172;2022-12-18T14:59:28;-1.30;99.90
15815;DHT22;8008;50.024;8.172;2022-12-18T15:02:03;-1.20;99.90
15815;DHT22;8008;50.024;8.172;2022-12-18T15:04:35;-1.30;99.90
15815;DHT22;8008;50.024;8.172;2022-12-18T15:07:14;-1.30;99.90
15815;DHT22;8008;50.024;8.172;2022-12-18T15:10:01;-1.30;99.90
15815;DHT22;8008;50.024;8.172;2022-12-18T15:12:34;-1.30;99.90
15815;DHT22;8008;50.024;8.172;2022-12-18T15:15:04;-1.30;99.90
15815;DHT22;8008;50.024;8.172;2022-12-18T15:17:32;-1.30;99.90
15815;DHT22;8008;50.024;8.172;2022-12-18T15:20:02;-1.40;99.90
15815;DHT22;8008;50.024;8.172;2022-12-18T15:22:35;-1.40;99.90
15815;DHT22;8008;50.024;8.172;2022-12-18T15:25:23;-1.30;99.90
15815;DHT22;8008;50.024;8.172;2022-12-18T15:27:54;-1.40;99.90
15815;DHT22;8008;50.024;8.172;2022-12-18T15:30:23;-1.30;99.90
15815;DHT22;8008;50.024;8.172;2022-12-18T15:32:52;-1.30;99.90
15815;DHT22;8008;50.024;8.172;2022-12-18T15:35:22;-1.30;99.90
15815;DHT22;8008;50.024;8.172;2022-12-18T15:37:52;-1.30;99.90
15815;DHT22;8008;50.024;8.172;2022-12-18T15:40:23;-1.30;99.90
15815;DHT22;8008;50.024;8.172;2022-12-18T15:42:53;-1.30;99.90
15815;DHT22;8008;50.024;8.172;2022-12-18T15:45:39;-1.30;99.90
15815;DHT22;8008;50.024;8.172;2022-12-18T15:48:18;-1.30;99.90
15815;DHT22;8008;50.024;8.172;2022-12-18T15:50:47;-1.40;99.90
15815;DHT22;8008;50.024;8.172;2022-12-18T15:53:16;-1.40;99.90
15815;DHT22;8008;50.024;8.172;2022-12-18T15:55:45;-1.40;99.90
15815;DHT22;8008;50.024;8.172;2022-12-18T15:58:31;-1.50;99.90
15815;DHT22;8008;50.024;8.172;2022-12-18T16:01:00;-1.40;99.90
15815;DHT22;8008;50.024;8.172;2022-12-18T16:03:30;-1.40;99.90
15815;DHT22;8008;50.024;8.172;2022-12-18T16:05:58;-1.40;99.90
15815;DHT22;8008;50.024;8.172;2022-12-18T16:08:31;-1.30;99.90
15815;DHT22;8008;50.024;8.172;2022-12-18T16:11:00;-1.20;99.90
15815;DHT22;8008;50.024;8.172;2022-12-18T16:13:27;-1.20;99.90
15815;DHT22;8008;50.024;8.172;2022-12-18T16:15:55;-1.20;99.90
15815;DHT22;8008;50.024;8.172;2022-12-18T16:18:23;-1.10;99.90
15815;DHT22;8008;50.024;8.172;2022-12-18T16:20:51;-1.20;99.90
15815;DHT22;8008;50.024;8.172;2022-12-18T16:23:19;-1.10;99.90
15815;DHT22;8008;50.024;8.172;2022-12-18T16:25:49;-1.10;99.90
15815;DHT22;8008;50.024;8.172;2022-12-18T16:28:29;-1.10;99.90
15815;DHT22;8008;50.024;8.172;2022-12-18T16:30:57;-1.20;99.90
15815;DHT22;8008;50.024;8.172;2022-12-18T16:33:25;-1.10;99.90
15815;DHT22;8008;50.024;8.172;2022-12-18T16:35:53;-1.10;99.90
15815;DHT22;8008;50.024;8.172;2022-12-18T16:38:21;-1.20;99.90
15815;DHT22;8008;50.024;8.172;2022-12-18T16:40:50;-1.10;99.90
15815;DHT22;8008;50.024;8.172;2022-12-18T16:43:35;-1.00;99.90
15815;DHT22;8008;50.024;8.172;2022-12-18T16:46:04;-1.00;99.90
15815;DHT22;8008;50.024;8.172;2022-12-18T16:48:32;-1.20;99.90
15815;DHT22;8008;50.024;8.172;2022-12-18T16:51:02;-1.10;99.90
15815;DHT22;8008;50.024;8.172;2022-12-18T16:53:31;-1.10;99.90
15815;DHT22;8008;50.024;8.172;2022-12-18T16:56:02;-1.10;99.90
15815;DHT22;8008;50.024;8.172;2022-12-18T16:58:30;-1.00;99.90
15815;DHT22;8008;50.024;8.172;2022-12-18T17:00:58;-1.00;99.90
15815;DHT22;8008;50.024;8.172;2022-12-18T17:03:26;-1.00;99.90
15815;DHT22;8008;50.024;8.172;2022-12-18T17:05:54;-1.00;99.90
15815;DHT22;8008;50.024;8.172;2022-12-18T17:08:22;-1.00;99.90
15815;DHT22;8008;50.024;8.172;2022-12-18T17:10:50;-1.00;99.90
15815;DHT22;8008;50.024;8.172;2022-12-18T17:13:19;-1.00;99.90
15815;DHT22;8008;50.024;8.172;2022-12-18T17:15:51;-1.00;99.90
15815;DHT22;8008;50.024;8.172;2022-12-18T17:18:19;-1.00;99.90
15815;DHT22;8008;50.024;8.172;2022-12-18T17:20:48;-1.00;99.90
15815;DHT22;8008;50.024;8.172;2022-12-18T17:23:15;-1.00;99.90
15815;DHT22;8008;50.024;8.172;2022-12-18T17:25:43;-1.00;99.90
15815;DHT22;8008;50.024;8.172;2022-12-18T17:28:11;-0.90;99.90
15815;DHT22;8008;50.024;8.172;2022-12-18T17:30:40;-0.90;99.90
15815;DHT22;8008;50.024;8.172;2022-12-18T17:33:08;-0.80;99.90
15815;DHT22;8008;50.024;8.172;2022-12-18T17:35:36;-0.80;99.90
15815;DHT22;8008;50.024;8.172;2022-12-18T17:38:04;-0.80;99.90
15815;DHT22;8008;50.024;8.172;2022-12-18T17:40:32;-0.80;99.90
15815;DHT22;8008;50.024;8.172;2022-12-18T17:43:00;-0.80;99.90
15815;DHT22;8008;50.024;8.172;2022-12-18T17:45:28;-0.80;99.90
15815;DHT22;8008;50.024;8.172;2022-12-18T17:47:59;-0.80;99.90
15815;DHT22;8008;50.024;8.172;2022-12-18T17:50:26;-0.80;99.90
15815;DHT22;8008;50.024;8.172;2022-12-18T17:52:55;-0.90;99.90
15815;DHT22;8008;50.024;8.172;2022-12-18T17:55:23;-0.80;99.90
15815;DHT22;8008;50.024;8.172;2022-12-18T17:57:51;-0.80;99.90
15815;DHT22;8008;50.024;8.172;2022-12-18T18:00:20;-0.90;99.90
15815;DHT22;8008;50.024;8.172;2022-12-18T18:02:48;-0.80;99.90
15815;DHT22;8008;50.024;8.172;2022-12-18T18:05:17;-0.80;99.90
15815;DHT22;8008;50.024;8.172;2022-12-18T18:07:46;-0.80;99.90
15815;DHT22;8008;50.024;8.172;2022-12-18T18:10:15;-0.70;99.90
15815;DHT22;8008;50.024;8.172;2022-12-18T18:12:43;-0.70;99.90
15815;DHT22;8008;50.024;8.172;2022-12-18T18:15:29;-0.70;99.90
15815;DHT22;8008;50.024;8.172;2022-12-18T18:17:56;-0.70;99.90
15815;DHT22;8008;50.024;8.172;2022-12-18T18:20:26;-0.60;99.90
15815;DHT22;8008;50.024;8.172;2022-12-18T18:22:55;-0.60;99.90
15815;DHT22;8008;50.024;8.172;2022-12-18T18:25:23;-0.60;99.90
15815;DHT22;8008;50.024;8.172;2022-12-18T18:27:52;-0.60;99.90
15815;DHT22;8008;50.024;8.172;2022-12-18T18:30:20;-0.60;99.90
15815;DHT22;8008;50.024;8.172;2022-12-18T18:32:48;-0.50;99.90
15815;DHT22;8008;50.024;8.172;2022-12-18T18:35:18;-0.50;99.90
15815;DHT22;8008;50.024;8.172;2022-12-18T18:38:07;-0.40;99.90
15815;DHT22;8008;50.024;8.172;2022-12-18T18:40:35;-0.40;99.90
15815;DHT22;8008;50.024;8.172;2022-12-18T18:43:03;-0.40;99.90
15815;DHT22;8008;50.024;8.172;2022-12-18T18:45:32;-0.40;99.90
15815;DHT22;8008;50.024;8.172;2022-12-18T18:48:00;-0.40;99.90
15815;DHT22;8008;50.024;8.172;2022-12-18T18:50:28;-0.40;99.90
15815;DHT22;8008;50.024;8.172;2022-12-18T18:52:56;-0.40;99.90
15815;DHT22;8008;50.024;8.172;2022-12-18T18:55:25;-0.40;99.90
15815;DHT22;8008;50.024;8.172;2022-12-18T18:57:53;-0.40;99.90
15815;DHT22;8008;50.024;8.172;2022-12-18T19:00:21;-0.40;99.90
15815;DHT22;8008;50.024;8.172;2022-12-18T19:02:49;-0.50;99.90
15815;DHT22;8008;50.024;8.172;2022-12-18T19:05:22;-0.40;99.90
15815;DHT22;8008;50.024;8.172;2022-12-18T19:07:49;-0.40;99.90
15815;DHT22;8008;50.024;8.172;2022-12-18T19:10:17;-0.40;99.90
15815;DHT22;8008;50.024;8.172;2022-12-18T19:12:46;-0.40;99.90
15815;DHT22;8008;50.024;8.172;2022-12-18T19:15:43;-0.40;99.90
15815;DHT22;8008;50.024;8.172;2022-12-18T19:18:11;-0.40;99.90
15815;DHT22;8008;50.024;8.172;2022-12-18T19:20:39;-0.40;99.90
15815;DHT22;8008;50.024;8.172;2022-12-18T19:23:07;-0.50;99.90
15815;DHT22;8008;50.024;8.172;2022-12-18T19:25:37;-0.40;99.90
15815;DHT22;8008;50.024;8.172;2022-12-18T19:28:09;-0.40;99.90
15815;DHT22;8008;50.024;8.172;2022-12-18T19:30:49;-0.40;99.90
15815;DHT22;8008;50.024;8.172;2022-12-18T19:33:26;-0.30;99.90
15815;DHT22;8008;50.024;8.172;2022-12-18T19:36:12;-0.30;99.90
15815;DHT22;8008;50.024;8.172;2022-12-18T19:38:40;-0.30;99.90
15815;DHT22;8008;50.024;8.172;2022-12-18T19:41:11;-0.20;99.90
15815;DHT22;8008;50.024;8.172;2022-12-18T19:43:42;-0.30;99.90
15815;DHT22;8008;50.024;8.172;2022-12-18T19:46:11;-0.20;99.90
15815;DHT22;8008;50.024;8.172;2022-12-18T19:48:41;-0.20;99.90
15815;DHT22;8008;50.024;8.172;2022-12-18T19:51:12;-0.20;99.90
15815;DHT22;8008;50.024;8.172;2022-12-18T19:53:40;-0.20;99.90
15815;DHT22;8008;50.024;8.172;2022-12-18T19:56:12;-0.20;99.90
15815;DHT22;8008;50.024;8.172;2022-12-18T19:58:41;-0.20;99.90
15815;DHT22;8008;50.024;8.172;2022-12-18T20:01:10;-0.20;99.90
15815;DHT22;8008;50.024;8.172;2022-12-18T20:03:42;-0.20;99.90
15815;DHT22;8008;50.024;8.172;2022-12-18T20:06:20;-0.10;99.90
15815;DHT22;8008;50.024;8.172;2022-12-18T20:08:50;-0.20;99.90
15815;DHT22;8008;50.024;8.172;2022-12-18T20:11:22;-0.30;99.90
15815;DHT22;8008;50.024;8.172;2022-12-18T20:13:51;-0.30;99.90
15815;DHT22;8008;50.024;8.172;2022-12-18T20:16:19;-0.30;99.90